Time;durP1;ratioP1;P1;durP2;ratioP2;P2;SDS_P1;SDS_P2;PMS_P1;PMS_P2;Temp;Humidity;BMP_temperature;BMP_pressure;BME280_temperature;BME280_humidity;BME280_pressure;Samples;Min_cycle;Max_cycle;Signal;HPM_P1;HPM_P2
2022/05/09 00:00:31;;;;;;;10.32;4.70;;;;;;;7.74;69.85;93546.94;5079415;28;20053;-87
2022/05/09 00:02:58;;;;;;;11.25;4.38;;;;;;;7.60;70.71;93561.38;5080614;28;20051;-85
2022/05/09 00:05:27;;;;;;;10.45;5.22;;;;;;;7.46;72.27;93560.44;5075967;28;20042;-86
2022/05/09 00:07:56;;;;;;;13.98;6.07;;;;;;;7.44;73.11;93553.94;5070627;28;20142;-84
2022/05/09 00:10:25;;;;;;;11.30;5.50;;;;;;;7.20;73.02;93514.97;5070844;28;20059;-85
2022/05/09 00:12:53;;;;;;;10.48;4.18;;;;;;;7.41;72.71;93549.19;5070712;28;20044;-84
2022/05/09 00:15:20;;;;;;;8.82;4.07;;;;;;;7.41;72.88;93554.31;5070786;28;20139;-85
2022/05/09 00:17:47;;;;;;;10.95;4.65;;;;;;;7.53;72.88;93562.25;5070611;28;20053;-84
2022/05/09 00:20:16;;;;;;;12.68;5.05;;;;;;;7.52;72.79;93564.06;5070328;28;20049;-85
2022/05/09 00:22:44;;;;;;;10.15;5.20;;;;;;;7.51;73.20;93564.22;5070325;28;20041;-85
2022/05/09 00:25:12;;;;;;;9.20;4.43;;;;;;;7.44;73.38;93549.63;5070889;28;20040;-85
2022/05/09 00:27:41;;;;;;;9.80;4.60;;;;;;;7.55;73.91;93568.00;5081639;28;20048;-85
2022/05/09 00:30:10;;;;;;;12.05;4.80;;;;;;;7.52;73.77;93563.25;5090742;28;20055;-85
2022/05/09 00:32:38;;;;;;;11.05;4.25;;;;;;;7.49;73.83;93556.72;5090672;28;20044;-84
2022/05/09 00:35:07;;;;;;;10.88;4.20;;;;;;;7.58;73.38;93560.75;5090589;28;20090;-86
2022/05/09 00:37:34;;;;;;;9.98;4.57;;;;;;;7.57;72.66;93564.31;5090868;28;20113;-84
2022/05/09 00:40:01;;;;;;;11.25;4.35;;;;;;;7.59;71.92;93575.13;5090734;28;20048;-84
2022/05/09 00:42:29;;;;;;;9.57;4.65;;;;;;;7.49;72.58;93562.66;5090268;28;20544;-85
2022/05/09 00:44:56;;;;;;;8.80;4.22;;;;;;;7.43;72.27;93560.81;5090526;28;20059;-85
2022/05/09 00:47:22;;;;;;;7.95;4.47;;;;;;;7.45;72.78;93568.31;5090188;28;20055;-85
2022/05/09 00:49:55;;;;;;;9.13;4.18;;;;;;;7.43;72.73;93562.56;5090223;28;20048;-85
2022/05/09 00:52:27;;;;;;;10.88;4.80;;;;;;;7.35;73.09;93566.03;5090876;28;20071;-85
2022/05/09 00:55:00;;;;;;;10.23;4.43;;;;;;;7.26;72.73;93562.00;5090537;28;20059;-85
2022/05/09 00:57:33;;;;;;;8.82;4.35;;;;;;;7.18;73.82;93561.13;5090344;28;20135;-86
2022/05/09 01:00:07;;;;;;;8.35;4.13;;;;;;;7.16;74.40;93555.41;5090692;28;20059;-85
2022/05/09 01:02:34;;;;;;;9.18;4.22;;;;;;;7.26;73.21;93562.00;5090464;28;20052;-84
2022/05/09 01:05:02;;;;;;;12.57;4.65;;;;;;;7.11;74.23;93557.72;5090324;28;20044;-84
2022/05/09 01:07:31;;;;;;;10.10;4.07;;;;;;;6.95;74.00;93543.41;5090731;28;20044;-85
2022/05/09 01:09:58;;;;;;;8.48;4.00;;;;;;;6.95;73.98;93554.41;5090739;28;20071;-85
2022/05/09 01:12:31;;;;;;;7.80;4.28;;;;;;;6.85;74.47;93541.09;5089864;28;20074;-85
2022/05/09 01:15:00;;;;;;;8.98;4.00;;;;;;;6.97;74.61;93563.63;5089762;28;20052;-86
2022/05/09 01:17:28;;;;;;;7.78;4.15;;;;;;;6.91;74.68;93567.72;5090043;28;20491;-84
2022/05/09 01:20:02;;;;;;;9.80;3.90;;;;;;;6.85;75.85;93561.53;5089974;28;20524;-84
2022/05/09 01:22:34;;;;;;;9.93;4.25;;;;;;;6.87;75.43;93559.59;5090166;28;20134;-85
2022/05/09 01:25:04;;;;;;;7.20;4.40;;;;;;;6.79;74.31;93557.94;5089895;28;20044;-84
2022/05/09 01:27:31;;;;;;;7.30;3.63;;;;;;;6.80;74.57;93553.59;5090337;28;20066;-85
2022/05/09 01:30:09;;;;;;;6.25;3.10;;;;;;;6.76;74.76;93562.63;5090070;28;20048;-85
2022/05/09 01:32:38;;;;;;;5.47;2.80;;;;;;;6.70;74.45;93545.44;5089872;28;20048;-85
2022/05/09 01:35:09;;;;;;;5.90;2.85;;;;;;;6.75;74.71;93564.38;5093083;28;20048;-85
2022/05/09 01:37:38;;;;;;;6.07;3.90;;;;;;;6.68;74.26;93556.59;5093837;28;20143;-84
2022/05/09 01:40:07;;;;;;;6.22;3.35;;;;;;;6.47;75.49;93548.88;5093780;28;20052;-85
2022/05/09 01:42:35;;;;;;;5.53;3.28;;;;;;;6.54;75.61;93565.06;5093626;28;20044;-84
2022/05/09 01:45:02;;;;;;;6.00;3.22;;;;;;;6.47;76.09;93567.53;5093472;28;20131;-84
2022/05/09 01:50:23;;;;;;;7.28;3.78;;;;;;;6.46;76.07;93560.84;5056771;28;20063;-85
2022/05/09 01:52:51;;;;;;;7.45;3.38;;;;;;;6.33;75.79;93558.09;5093434;28;20044;-85
2022/05/09 01:55:18;;;;;;;7.80;3.42;;;;;;;6.41;76.20;93566.47;5093389;28;20048;-86
2022/05/09 01:57:45;;;;;;;7.22;3.75;;;;;;;6.43;76.17;93558.63;5093480;28;20051;-85
2022/05/09 02:00:13;;;;;;;6.15;3.78;;;;;;;6.40;76.32;93566.66;5093270;28;20456;-85
2022/05/09 02:02:40;;;;;;;6.93;3.97;;;;;;;6.38;77.11;93571.91;5093240;28;20044;-85
2022/05/09 02:05:07;;;;;;;6.72;3.92;;;;;;;6.38;75.94;93571.13;5093021;28;20143;-85
2022/05/09 02:07:35;;;;;;;5.78;3.15;;;;;;;6.33;76.48;93565.75;5093143;28;20048;-84
2022/05/09 02:10:04;;;;;;;6.43;2.97;;;;;;;6.30;76.64;93576.31;5093070;28;20056;-85
2022/05/09 02:12:32;;;;;;;5.28;3.40;;;;;;;6.21;76.35;93555.19;5093081;28;20062;-84
2022/05/09 02:14:58;;;;;;;5.75;3.47;;;;;;;6.23;76.30;93569.34;5092866;28;20039;-84
2022/05/09 02:17:25;;;;;;;7.65;3.60;;;;;;;6.21;76.65;93570.50;5092732;28;20052;-85
2022/05/09 02:19:52;;;;;;;5.43;3.42;;;;;;;6.24;76.71;93575.22;5092726;28;20044;-85
2022/05/09 02:22:19;;;;;;;5.07;2.78;;;;;;;6.21;76.59;93566.16;5092815;28;20051;-85
2022/05/09 02:24:46;;;;;;;4.55;2.85;;;;;;;6.25;75.95;93581.94;5092635;28;20048;-85
2022/05/09 02:27:16;;;;;;;7.47;2.95;;;;;;;6.25;75.64;93582.72;5092476;28;20051;-85
2022/05/09 02:29:43;;;;;;;4.30;2.60;;;;;;;6.12;75.70;93564.69;5092475;28;20048;-84
2022/05/09 02:32:13;;;;;;;8.15;3.25;;;;;;;6.15;76.41;93577.06;5092713;28;20050;-84
2022/05/09 02:34:40;;;;;;;4.32;2.90;;;;;;;6.04;76.66;93569.84;5092368;28;20051;-85
2022/05/09 02:37:06;;;;;;;5.65;3.15;;;;;;;6.00;76.98;93575.25;5092430;28;20052;-85
2022/05/09 02:39:33;;;;;;;6.85;4.10;;;;;;;5.96;78.30;93576.56;5092281;28;20481;-85
2022/05/09 02:42:01;;;;;;;7.13;3.40;;;;;;;5.88;78.90;93561.34;5092362;28;20045;-85
2022/05/09 02:44:29;;;;;;;7.38;3.92;;;;;;;5.77;78.65;93557.44;5092599;28;20066;-85
2022/05/09 02:46:56;;;;;;;6.60;3.65;;;;;;;5.78;79.55;93566.66;5092243;28;20563;-85
2022/05/09 02:49:23;;;;;;;5.95;3.55;;;;;;;5.82;79.89;93585.75;5092404;28;20048;-84
2022/05/09 02:51:51;;;;;;;4.90;2.80;;;;;;;5.66;79.42;93561.19;5092692;28;20048;-84
2022/05/09 02:54:18;;;;;;;5.28;3.10;;;;;;;5.78;78.94;93581.19;5092212;28;20581;-84
2022/05/09 02:56:45;;;;;;;6.43;2.92;;;;;;;5.70;79.32;93587.91;5092069;28;20176;-85
2022/05/09 02:59:14;;;;;;;5.20;2.72;;;;;;;5.70;79.53;93589.66;5092193;28;20516;-84
2022/05/09 03:01:42;;;;;;;4.20;2.60;;;;;;;5.61;79.69;93588.94;5092060;28;20048;-84
2022/05/09 03:06:53;;;;;;;6.82;3.78;;;;;;;5.59;80.10;93594.19;5092534;28;20151;-85
2022/05/09 03:09:20;;;;;;;9.95;3.08;;;;;;;5.59;80.20;93590.84;5091618;28;20071;-84
2022/05/09 03:11:46;;;;;;;6.80;4.25;;;;;;;5.54;80.27;93591.34;5091450;28;20044;-84
2022/05/09 03:14:13;;;;;;;5.95;3.58;;;;;;;5.53;80.67;93591.53;5091956;28;20048;-84
2022/05/09 03:16:41;;;;;;;6.00;3.75;;;;;;;5.46;80.85;93599.84;5092003;28;20044;-84
2022/05/09 03:19:08;;;;;;;6.50;3.50;;;;;;;5.34;81.76;93598.63;5091666;28;20052;-84
2022/05/09 03:21:35;;;;;;;5.38;3.05;;;;;;;5.25;81.78;93602.97;5091662;28;20117;-85
2022/05/09 03:24:02;;;;;;;8.63;3.92;;;;;;;5.18;83.19;93595.22;5091408;28;20047;-83
2022/05/09 03:26:28;;;;;;;6.90;3.90;;;;;;;5.19;82.81;93596.00;5091791;28;20399;-84
2022/05/09 03:28:55;;;;;;;7.47;3.30;;;;;;;5.32;83.68;93595.47;5091555;28;20387;-84
2022/05/09 03:31:22;;;;;;;7.78;3.60;;;;;;;5.38;82.54;93606.72;5091199;28;20040;-85
2022/05/09 03:33:50;;;;;;;10.35;4.13;;;;;;;5.47;82.15;93614.16;5091639;28;20079;-85
2022/05/09 03:36:17;;;;;;;8.48;4.28;;;;;;;5.48;81.27;93607.31;5091227;28;20055;-84
2022/05/09 03:38:44;;;;;;;7.05;4.18;;;;;;;5.40;81.68;93610.69;5091538;28;20093;-85
2022/05/09 03:41:11;;;;;;;6.75;3.22;;;;;;;5.28;82.27;93599.31;5091267;28;20078;-84
2022/05/09 03:43:38;;;;;;;9.25;4.18;;;;;;;5.33;82.15;93602.16;5091782;28;20097;-84
2022/05/09 03:46:05;;;;;;;11.77;4.63;;;;;;;5.30;82.08;93610.13;5091664;28;20059;-84
2022/05/09 03:48:32;;;;;;;6.10;3.92;;;;;;;5.30;82.48;93610.91;5091532;28;20048;-84
2022/05/09 03:51:01;;;;;;;7.43;4.70;;;;;;;5.29;82.87;93606.78;5091561;28;20455;-84
2022/05/09 03:53:29;;;;;;;7.57;3.70;;;;;;;5.47;83.05;93615.94;5091671;28;20105;-84
2022/05/09 03:55:56;;;;;;;7.95;3.55;;;;;;;5.41;82.19;93609.75;5090985;28;20052;-84
2022/05/09 03:58:26;;;;;;;7.18;3.63;;;;;;;5.57;81.84;93620.81;5091377;28;20097;-84
2022/05/09 04:00:53;;;;;;;8.85;4.47;;;;;;;5.55;81.46;93610.00;5091204;28;20068;-83
2022/05/09 04:03:20;;;;;;;7.90;4.50;;;;;;;5.64;81.32;93628.59;5090907;28;20048;-83
2022/05/09 04:05:47;;;;;;;7.70;3.80;;;;;;;5.73;81.41;93622.44;5090931;28;20058;-84
2022/05/09 04:08:20;;;;;;;6.43;3.58;;;;;;;5.80;80.71;93620.03;5090660;28;20097;-84
2022/05/09 04:10:49;;;;;;;8.93;3.67;;;;;;;5.84;80.06;93611.84;5090657;28;20395;-84
2022/05/09 04:13:16;;;;;;;8.48;4.80;;;;;;;5.38;79.81;93543.84;5090683;28;20047;-84
2022/05/09 04:18:38;;;;;;;11.45;4.68;;;;;;;6.09;79.12;93616.81;5033156;28;20573;-85
2022/05/09 04:21:05;;;;;;;9.43;4.20;;;;;;;6.19;78.86;93623.44;5090445;28;20048;-84
2022/05/09 04:23:34;;;;;;;7.20;3.50;;;;;;;6.27;78.69;93619.06;5090688;28;20043;-85
2022/05/09 04:26:01;;;;;;;12.13;4.20;;;;;;;6.30;77.91;93612.84;5090883;28;20139;-85
2022/05/09 04:28:28;;;;;;;8.27;4.50;;;;;;;6.51;76.84;93622.38;5090662;28;20059;-83
2022/05/09 04:30:55;;;;;;;11.13;4.35;;;;;;;6.54;76.35;93616.13;5090600;28;20543;-83
2022/05/09 04:33:22;;;;;;;8.35;3.85;;;;;;;6.71;76.45;93621.06;5090772;28;20044;-84
2022/05/09 04:35:49;;;;;;;8.10;4.55;;;;;;;6.84;75.32;93623.00;5090731;28;20055;-85
2022/05/09 04:38:18;;;;;;;7.40;3.83;;;;;;;6.87;75.65;93612.44;5091089;28;20173;-84
2022/05/09 04:40:51;;;;;;;7.22;3.83;;;;;;;7.11;74.50;93623.34;5090127;28;20063;-83
2022/05/09 04:43:19;;;;;;;15.07;4.75;;;;;;;7.24;74.04;93623.50;5090526;28;20059;-85
2022/05/09 04:45:48;;;;;;;9.40;3.70;;;;;;;7.37;72.29;93617.78;5090645;28;20044;-84
2022/05/09 04:48:15;;;;;;;7.88;3.35;;;;;;;7.42;71.55;93610.34;5090651;28;20048;-84
2022/05/09 04:50:42;;;;;;;6.32;3.28;;;;;;;7.66;70.81;93618.66;5090534;28;20051;-84
2022/05/09 04:53:11;;;;;;;6.53;3.63;;;;;;;7.66;70.83;93605.06;5090394;28;20045;-84
2022/05/09 04:55:39;;;;;;;8.68;3.58;;;;;;;7.94;70.56;93619.69;5090208;28;20482;-84
2022/05/09 04:58:07;;;;;;;6.38;3.35;;;;;;;8.14;69.71;93612.19;5090112;28;20047;-85
2022/05/09 05:00:36;;;;;;;5.80;3.33;;;;;;;8.35;69.50;93621.63;5090194;28;20055;-84
2022/05/09 05:03:03;;;;;;;7.15;3.70;;;;;;;8.61;68.46;93624.59;5090650;28;20070;-84
2022/05/09 05:05:30;;;;;;;8.60;3.72;;;;;;;8.87;67.12;93616.28;5090409;28;20482;-84
2022/05/09 05:07:56;;;;;;;11.68;6.80;;;;;;;9.06;66.26;93616.56;5073140;28;20051;-85
2022/05/09 05:10:23;;;;;;;14.95;7.70;;;;;;;9.37;64.84;93612.78;5073429;28;20928;-84
2022/05/09 05:12:52;;;;;;;7.78;5.40;;;;;;;9.40;65.77;93578.25;5073955;28;20045;-84
2022/05/09 05:15:23;;;;;;;6.93;4.43;;;;;;;9.77;64.50;93601.84;5073831;28;20410;-84
2022/05/09 05:17:52;;;;;;;7.25;3.75;;;;;;;9.92;64.89;93619.63;5073794;28;20045;-84
2022/05/09 05:20:19;;;;;;;5.00;3.10;;;;;;;9.93;63.99;93618.63;5073667;28;20413;-83
2022/05/09 05:22:48;;;;;;;10.45;3.58;;;;;;;9.91;61.17;93612.13;5073661;28;20052;-85
2022/05/09 05:25:16;;;;;;;7.95;3.67;;;;;;;10.12;61.92;93624.78;5073669;28;20049;-84
2022/05/09 05:27:43;;;;;;;7.80;4.20;;;;;;;10.19;60.39;93629.13;5073823;28;20045;-84
2022/05/09 05:30:10;;;;;;;19.20;9.23;;;;;;;10.19;60.66;93616.28;5073607;28;20048;-83
2022/05/09 05:32:41;;;;;;;16.52;10.10;;;;;;;10.27;61.10;93618.66;5073697;28;20137;-84
2022/05/09 05:35:11;;;;;;;22.40;13.00;;;;;;;10.44;62.85;93626.78;5073467;28;20116;-86
2022/05/09 05:37:38;;;;;;;34.33;17.67;;;;;;;10.32;62.36;93618.84;5073771;28;20044;-84
2022/05/09 05:40:07;;;;;;;27.83;12.88;;;;;;;10.63;63.52;93627.78;5073215;28;20391;-83
2022/05/09 05:42:37;;;;;;;21.95;11.73;;;;;;;11.03;63.83;93621.78;5073339;28;20049;-83
2022/05/09 05:45:05;;;;;;;17.13;8.88;;;;;;;11.39;60.14;93611.94;5073029;28;20517;-84
2022/05/09 05:47:32;;;;;;;16.33;8.35;;;;;;;11.51;60.65;93624.97;5073113;28;20048;-84
2022/05/09 05:50:00;;;;;;;12.90;6.70;;;;;;;11.77;60.82;93623.28;5071825;28;20102;-84
2022/05/09 05:52:27;;;;;;;16.92;7.07;;;;;;;12.16;57.16;93620.66;5093409;28;20048;-84
2022/05/09 05:54:53;;;;;;;17.33;6.68;;;;;;;12.61;55.92;93606.84;5093302;28;20048;-82
2022/05/09 05:57:24;;;;;;;13.77;5.63;;;;;;;13.17;53.84;93611.25;5092806;28;20490;-84
2022/05/09 05:59:52;;;;;;;19.92;6.72;;;;;;;13.68;52.90;93616.25;5093292;28;20409;-83
2022/05/09 06:02:19;;;;;;;18.15;7.32;;;;;;;13.71;50.22;93608.06;5093152;28;20054;-83
2022/05/09 06:04:47;;;;;;;21.95;6.85;;;;;;;14.19;50.15;93618.53;5093456;28;20051;-83
2022/05/09 06:07:15;;;;;;;16.05;6.72;;;;;;;14.43;47.80;93621.94;5093314;28;20048;-84
2022/05/09 06:09:44;;;;;;;16.80;5.72;;;;;;;14.72;48.40;93619.47;5093224;28;20394;-84
2022/05/09 06:12:12;;;;;;;14.05;6.47;;;;;;;15.07;48.45;93620.50;5093132;28;20048;-84
2022/05/09 06:14:40;;;;;;;15.85;7.18;;;;;;;15.16;47.64;93615.78;5092956;28;20472;-83
2022/05/09 06:17:07;;;;;;;20.65;7.25;;;;;;;15.31;46.69;93618.66;5093196;28;20040;-84
2022/05/09 06:19:34;;;;;;;17.48;7.15;;;;;;;15.66;47.02;93619.59;5092747;28;20051;-84
2022/05/09 06:22:01;;;;;;;15.07;6.55;;;;;;;15.83;46.16;93619.63;5092764;28;20549;-85
2022/05/09 06:24:29;;;;;;;19.13;6.80;;;;;;;15.82;45.04;93619.84;5092831;28;20052;-84
2022/05/09 06:26:57;;;;;;;16.80;7.00;;;;;;;15.71;45.49;93618.88;5092586;28;20082;-84
2022/05/09 06:29:24;;;;;;;15.65;7.00;;;;;;;15.90;46.83;93589.19;5092985;28;20055;-83
2022/05/09 06:31:51;;;;;;;18.85;7.00;;;;;;;16.19;44.90;93616.13;5092777;28;20468;-84
2022/05/09 06:34:18;;;;;;;19.35;7.53;;;;;;;16.32;45.69;93623.56;5092524;28;20051;-84
2022/05/09 06:36:45;;;;;;;13.88;6.10;;;;;;;16.60;45.10;93613.34;5092533;28;20056;-84
2022/05/09 06:39:12;;;;;;;13.27;6.10;;;;;;;16.23;44.89;93618.00;5092422;28;20083;-84
2022/05/09 06:41:40;;;;;;;13.80;6.05;;;;;;;16.50;44.36;93609.59;5092307;28;20085;-85
2022/05/09 06:44:07;;;;;;;14.93;6.20;;;;;;;17.06;44.47;93608.84;5092521;28;20047;-84
2022/05/09 06:46:35;;;;;;;14.48;5.82;;;;;;;17.56;42.99;93616.72;5092464;28;20048;-85
2022/05/09 06:49:02;;;;;;;13.43;5.50;;;;;;;17.82;41.54;93614.34;5092237;28;20130;-84
2022/05/09 06:51:28;;;;;;;16.25;6.13;;;;;;;16.68;43.95;93613.75;5092417;28;20134;-84
2022/05/09 06:53:56;;;;;;;12.80;5.35;;;;;;;16.97;44.34;93615.44;5092049;28;20063;-85
2022/05/09 06:56:23;;;;;;;14.98;5.95;;;;;;;17.42;42.16;93602.50;5092258;28;20044;-84
2022/05/09 06:58:51;;;;;;;11.98;5.20;;;;;;;17.91;42.78;93609.50;5092341;28;20075;-86
2022/05/09 07:01:19;;;;;;;10.10;4.85;;;;;;;18.54;41.58;93601.22;5091938;28;20517;-84
2022/05/09 07:03:47;;;;;;;15.48;5.72;;;;;;;18.98;38.79;93607.19;5091983;28;20044;-85
2022/05/09 07:06:16;;;;;;;14.27;4.63;;;;;;;18.66;38.64;93606.25;5092526;28;20052;-85
2022/05/09 07:08:43;;;;;;;13.05;4.03;;;;;;;18.45;41.87;93602.72;5091616;28;20059;-85
2022/05/09 07:11:11;;;;;;;13.40;5.38;;;;;;;18.94;40.28;93574.94;5091634;28;20129;-84
2022/05/09 07:13:38;;;;;;;11.60;4.30;;;;;;;19.38;39.49;93604.31;5091628;28;20439;-84
2022/05/09 07:16:08;;;;;;;12.13;4.68;;;;;;;19.40;39.44;93584.00;5091713;28;20139;-84
2022/05/09 07:18:36;;;;;;;12.45;4.97;;;;;;;20.06;38.46;93592.25;5091715;28;20052;-84
2022/05/09 07:21:03;;;;;;;18.95;5.60;;;;;;;20.15;37.04;93588.84;5091415;28;20142;-85
2022/05/09 07:23:30;;;;;;;12.40;4.97;;;;;;;19.59;38.61;93595.50;5091513;28;20486;-85
2022/05/09 07:25:59;;;;;;;12.35;3.88;;;;;;;19.48;37.64;93599.13;5091554;28;20055;-84
2022/05/09 07:28:28;;;;;;;12.18;5.30;;;;;;;18.97;38.98;93592.63;5091353;28;20490;-84
2022/05/09 07:30:56;;;;;;;13.50;4.45;;;;;;;18.94;39.06;93601.72;5090979;28;20036;-84
2022/05/09 07:33:24;;;;;;;12.10;4.18;;;;;;;19.51;39.70;93588.19;5091174;28;20506;-84
2022/05/09 07:35:51;;;;;;;14.32;4.30;;;;;;;20.13;39.08;93592.75;5091248;28;20395;-85
2022/05/09 07:38:18;;;;;;;12.07;4.07;;;;;;;19.90;38.71;93597.41;5091167;28;20055;-85
2022/05/09 07:40:46;;;;;;;10.68;3.75;;;;;;;20.04;39.59;93569.03;5091425;28;20418;-83
2022/05/09 07:43:17;;;;;;;12.90;3.55;;;;;;;20.78;37.16;93581.00;5091389;28;20048;-83
2022/05/09 07:45:45;;;;;;;6.70;3.20;;;;;;;20.69;36.66;93584.13;5091314;28;20048;-83
2022/05/09 07:48:13;;;;;;;6.43;2.50;;;;;;;21.28;36.29;93591.59;5091193;28;20048;-83
2022/05/09 07:50:42;;;;;;;5.63;2.17;;;;;;;21.03;35.26;93598.47;5091431;28;20047;-84
2022/05/09 07:53:11;;;;;;;5.53;3.03;;;;;;;21.08;35.36;93595.06;5091124;28;20101;-83
2022/05/09 07:55:39;;;;;;;5.82;2.30;;;;;;;21.84;34.54;93594.25;5091305;28;20047;-83
2022/05/09 07:58:07;;;;;;;3.33;1.50;;;;;;;20.72;34.29;93588.06;5091243;28;20104;-85
2022/05/09 08:00:35;;;;;;;2.75;1.58;;;;;;;20.66;34.01;93589.91;5091033;28;20051;-83
2022/05/09 08:03:02;;;;;;;4.50;1.88;;;;;;;20.20;34.30;93600.34;5078328;28;20481;-83
2022/05/09 08:05:29;;;;;;;4.03;1.98;;;;;;;19.81;35.07;93593.75;5070830;28;20411;-84
2022/05/09 08:07:57;;;;;;;2.88;1.75;;;;;;;19.79;35.47;93591.41;5070798;28;20063;-85
2022/05/09 08:10:24;;;;;;;3.95;2.22;;;;;;;19.44;36.15;93593.63;5070599;28;20063;-87
2022/05/09 08:12:52;;;;;;;2.70;1.90;;;;;;;19.23;35.72;93590.97;5070885;28;20048;-85
2022/05/09 08:15:21;;;;;;;4.00;1.58;;;;;;;19.54;35.62;93594.72;5070723;28;20071;-83
2022/05/09 08:17:49;;;;;;;2.90;1.70;;;;;;;18.96;36.04;93591.06;5070937;28;20097;-84
2022/05/09 08:20:19;;;;;;;8.68;2.78;;;;;;;19.34;36.55;93585.78;5070821;28;20094;-83
2022/05/09 08:22:49;;;;;;;19.10;9.77;;;;;;;19.25;37.02;93595.91;5070751;28;20079;-84
2022/05/09 08:25:20;;;;;;;7.13;2.78;;;;;;;18.94;37.24;93596.50;5070654;28;20048;-90
2022/05/09 08:27:48;;;;;;;4.05;3.17;;;;;;;19.22;38.05;93597.19;5070245;28;20056;-83
2022/05/09 08:30:15;;;;;;;5.53;2.10;;;;;;;19.27;37.19;93596.47;5077566;28;20048;-84
2022/05/09 08:32:43;;;;;;;2.65;1.85;;;;;;;19.11;36.63;93592.97;5091177;28;20511;-86
2022/05/09 08:35:13;;;;;;;3.03;1.67;;;;;;;19.05;37.59;93596.59;5090398;28;20475;-85
2022/05/09 08:37:40;;;;;;;4.57;2.33;;;;;;;18.85;37.82;93553.00;5070727;28;20139;-86
2022/05/09 08:40:09;;;;;;;5.80;2.47;;;;;;;19.25;38.21;93587.34;5070540;28;20162;-83
2022/05/09 08:42:42;;;;;;;2.72;1.92;;;;;;;19.45;37.69;93555.34;5071036;28;20045;-84
2022/05/09 08:45:22;;;;;;;5.25;2.17;;;;;;;19.78;37.19;93582.00;5074762;28;20049;-85
2022/05/09 08:48:08;;;;;;;4.38;2.63;;;;;;;19.55;36.60;93584.06;5078731;28;20075;-83
2022/05/09 08:50:50;;;;;;;6.75;3.13;;;;;;;19.24;37.72;93594.34;5095356;28;20051;-84
2022/05/09 08:53:23;;;;;;;5.00;2.38;;;;;;;19.64;36.10;93589.53;5094831;28;20044;-83
2022/05/09 08:55:51;;;;;;;7.38;2.30;;;;;;;19.40;35.04;93597.03;5094493;28;20043;-85
2022/05/09 08:58:37;;;;;;;7.05;3.38;;;;;;;19.47;35.08;93600.16;5094652;28;20048;-90
2022/05/09 09:01:10;;;;;;;4.20;1.67;;;;;;;19.53;34.85;93593.94;5094789;28;20474;-85
2022/05/09 09:03:40;;;;;;;4.95;3.38;;;;;;;19.29;33.89;93586.56;5094180;28;20512;-83
2022/05/09 09:06:15;;;;;;;6.22;2.60;;;;;;;19.25;32.93;93589.94;5094575;28;20050;-85
2022/05/09 09:08:58;;;;;;;3.53;2.25;;;;;;;19.16;32.56;93592.25;5094090;28;20044;-84
2022/05/09 09:11:36;;;;;;;2.95;2.33;;;;;;;19.30;32.56;93563.91;5094143;28;20048;-84
2022/05/09 09:14:11;;;;;;;4.70;2.40;;;;;;;19.39;29.45;93601.44;5094388;28;20047;-84
2022/05/09 09:16:53;;;;;;;3.50;1.80;;;;;;;19.63;30.01;93578.31;5094337;28;20101;-85
2022/05/09 09:19:32;;;;;;;3.10;2.00;;;;;;;19.43;30.82;93573.03;5094152;28;20055;-85
2022/05/09 09:22:08;;;;;;;2.85;1.73;;;;;;;19.62;30.55;93586.41;5093910;28;20044;-84
2022/05/09 09:24:50;;;;;;;6.15;1.83;;;;;;;19.44;29.53;93564.22;5087954;28;20040;-85
2022/05/09 09:27:34;;;;;;;2.25;1.67;;;;;;;19.46;29.74;93580.38;5073754;28;20041;-86
2022/05/09 09:30:10;;;;;;;2.42;1.58;;;;;;;19.95;28.31;93576.56;5073419;28;20044;-84
2022/05/09 09:32:39;;;;;;;3.33;1.67;;;;;;;19.92;30.65;93576.28;5073460;28;20133;-85
2022/05/09 09:35:12;;;;;;;3.72;1.75;;;;;;;20.23;30.51;93571.13;5073077;28;20506;-86
2022/05/09 09:37:53;;;;;;;5.38;1.95;;;;;;;19.80;29.27;93553.84;5073490;28;20474;-84
2022/05/09 09:40:20;;;;;;;5.70;2.67;;;;;;;19.93;27.48;93568.22;5073695;28;20053;-85
2022/05/09 09:42:47;;;;;;;19.58;9.05;;;;;;;20.43;28.86;93567.72;5092164;28;20110;-85
2022/05/09 09:45:29;;;;;;;2.05;1.40;;;;;;;19.71;25.28;93496.25;5093599;28;20448;-84
2022/05/09 09:48:12;;;;;;;12.45;4.65;;;;;;;20.59;25.93;93565.13;5094065;28;20044;-89
2022/05/09 09:50:55;;;;;;;5.10;2.17;;;;;;;19.67;27.18;93499.66;5093492;28;20130;-90
2022/05/09 09:53:38;;;;;;;2.88;1.60;;;;;;;20.05;28.39;93554.97;5093457;28;20047;-85
2022/05/09 09:56:09;;;;;;;2.03;1.00;;;;;;;20.06;26.06;93559.13;5092853;28;20098;-85
2022/05/09 09:58:40;;;;;;;3.78;1.20;;;;;;;19.95;28.07;93554.94;5093583;28;20099;-86
2022/05/09 10:01:21;;;;;;;2.22;1.27;;;;;;;20.08;26.33;93559.66;5093425;28;20047;-86
2022/05/09 10:04:04;;;;;;;6.10;3.10;;;;;;;20.31;28.34;93551.56;5093235;28;20405;-84
2022/05/09 10:06:31;;;;;;;3.92;1.65;;;;;;;20.12;26.78;93542.44;5093906;28;20064;-89
2022/05/09 10:09:00;;;;;;;3.60;1.88;;;;;;;20.24;27.81;93560.44;5093392;28;20048;-86
2022/05/09 10:11:29;;;;;;;2.65;1.00;;;;;;;20.08;27.17;93549.22;5092380;28;20044;-90
2022/05/09 10:13:57;;;;;;;2.45;1.30;;;;;;;20.30;27.38;93548.16;5082078;28;20486;-86
2022/05/09 10:16:30;;;;;;;2.13;1.27;;;;;;;21.03;27.41;93548.84;5092824;28;20044;-84
2022/05/09 10:19:00;;;;;;;5.57;1.63;;;;;;;21.20;25.62;93540.66;5090065;28;20051;-87
2022/05/09 10:27:14;;;;;;;5.45;1.77;;;;;;;20.93;25.69;93554.88;5072666;28;20081;-87
2022/05/09 10:29:41;;;;;;;4.57;2.40;;;;;;;21.25;25.37;93554.78;5072230;28;20044;-85
2022/05/09 10:32:13;;;;;;;3.72;1.90;;;;;;;21.22;26.21;93553.47;5072223;28;20059;-83
2022/05/09 10:34:50;;;;;;;3.05;1.60;;;;;;;21.13;25.91;93540.19;5072321;28;20049;-87
2022/05/09 10:37:24;;;;;;;2.45;1.02;;;;;;;20.96;26.66;93541.28;5072210;28;20414;-79
2022/05/09 10:39:56;;;;;;;4.80;1.95;;;;;;;21.24;24.88;93548.75;5072188;28;20056;-83
2022/05/09 10:42:34;;;;;;;5.18;2.20;;;;;;;21.08;25.32;93530.56;5072364;28;20143;-87
2022/05/09 10:45:06;;;;;;;1.80;0.90;;;;;;;21.67;24.41;93548.28;5073898;28;20127;-91
2022/05/09 10:47:42;;;;;;;4.60;2.00;;;;;;;20.78;23.92;93541.84;5072158;28;20052;-86
2022/05/09 10:50:13;;;;;;;;;;;;;;;20.64;25.06;93536.41;5073367;28;20552;-85
2022/05/09 10:52:48;;;;;;;3.63;1.08;;;;;;;20.88;24.80;93536.59;5072208;28;19927;-84
2022/05/09 10:55:21;;;;;;;2.28;1.30;;;;;;;21.05;23.46;93510.19;5071615;28;20052;-82
2022/05/09 10:57:56;;;;;;;2.60;1.20;;;;;;;21.00;23.56;93536.31;5072271;28;20045;-87
2022/05/09 11:00:26;;;;;;;2.72;1.00;;;;;;;20.74;24.06;93531.13;5072565;28;20052;-82
2022/05/09 11:03:03;;;;;;;2.47;1.05;;;;;;;21.18;24.76;93527.09;5080656;28;20052;-85
2022/05/09 11:05:49;;;;;;;1.42;0.80;;;;;;;21.19;24.20;93525.25;5092254;28;20044;-87
2022/05/09 11:08:25;;;;;;;2.10;1.20;;;;;;;21.28;24.52;93528.88;5091962;28;20052;-81
2022/05/09 11:11:05;;;;;;;3.75;1.67;;;;;;;21.45;23.91;93530.38;5092683;28;20056;-80
2022/05/09 11:13:43;;;;;;;4.30;1.63;;;;;;;21.31;23.20;93538.81;5092600;28;20048;-81
2022/05/09 11:16:20;;;;;;;4.38;1.50;;;;;;;21.02;24.68;93521.16;5092047;28;20383;-86
2022/05/09 11:19:17;;;;;;;4.18;1.58;;;;;;;21.27;23.34;93531.75;5091728;28;20055;-85
2022/05/09 11:21:51;;;;;;;7.40;2.92;;;;;;;21.20;24.30;93521.63;5091554;28;20115;-84
2022/05/09 11:24:36;;;;;;;5.82;2.13;;;;;;;21.18;24.34;93532.34;5087974;28;20096;-88
2022/05/09 11:27:21;;;;;;;3.47;1.40;;;;;;;21.15;23.92;93522.41;5071715;28;20047;-92
2022/05/09 11:29:58;;;;;;;3.25;1.45;;;;;;;21.09;23.19;93519.06;5072086;28;20053;-85
2022/05/09 11:32:46;;;;;;;12.40;2.33;;;;;;;20.97;22.58;93529.03;5071875;28;20052;-86
2022/05/09 11:35:35;;;;;;;3.10;1.40;;;;;;;21.23;23.20;93529.69;5071306;28;20885;-87
2022/05/09 11:38:28;;;;;;;2.72;0.93;;;;;;;21.34;24.02;93517.34;5071816;28;20136;-86
2022/05/09 11:41:13;;;;;;;2.83;1.00;;;;;;;21.36;24.95;93504.03;5071501;28;20495;-88
2022/05/09 11:44:00;;;;;;;4.50;1.75;;;;;;;21.54;24.74;93507.84;5072687;28;20045;-84
2022/05/09 11:46:45;;;;;;;6.03;1.48;;;;;;;21.41;24.75;93508.44;5071673;28;21571;-80
2022/05/09 11:49:28;;;;;;;1.70;0.80;;;;;;;21.30;23.33;93505.09;5071635;28;20132;-84
2022/05/09 11:52:02;;;;;;;2.35;0.73;;;;;;;21.40;23.22;93506.88;5088828;28;20048;-86
2022/05/09 11:54:36;;;;;;;2.30;1.17;;;;;;;21.57;23.18;93501.31;5091453;28;20051;-85
2022/05/09 11:57:07;;;;;;;3.70;1.55;;;;;;;21.55;23.12;93514.63;5091577;28;20481;-84
2022/05/09 11:59:37;;;;;;;1.80;1.05;;;;;;;21.24;24.21;93499.13;5091539;28;20040;-91
2022/05/09 12:02:13;;;;;;;4.28;1.58;;;;;;;21.55;24.08;93492.94;5091340;28;20047;-89